sensor_id;sensor_type;location;lat;lon;timestamp;P1;durP1;ratioP1;P2;durP2;ratioP2
35304;SDS011;26433;48.034;-1.764;2022-12-11T06:05:10;20.80;;;5.82;;
35304;SDS011;26433;48.034;-1.764;2022-12-11T06:10:14;17.55;;;7.22;;
35304;SDS011;26433;48.034;-1.764;2022-12-11T06:15:18;17.70;;;5.70;;
35304;SDS011;26433;48.034;-1.764;2022-12-11T06:20:23;12.27;;;5.22;;
35304;SDS011;26433;48.034;-1.764;2022-12-11T06:25:27;17.60;;;5.60;;
35304;SDS011;26433;48.034;-1.764;2022-12-11T06:30:31;13.48;;;5.50;;
35304;SDS011;26433;48.034;-1.764;2022-12-11T06:35:41;17.25;;;5.37;;
35304;SDS011;26433;48.034;-1.764;2022-12-11T06:40:45;13.95;;;5.53;;
35304;SDS011;26433;48.034;-1.764;2022-12-11T06:45:56;11.88;;;5.68;;
35304;SDS011;26433;48.034;-1.764;2022-12-11T06:51:06;16.87;;;5.25;;
35304;SDS011;26433;48.034;-1.764;2022-12-11T06:56:12;16.02;;;5.78;;
35304;SDS011;26433;48.034;-1.764;2022-12-11T07:01:18;19.10;;;5.75;;
35304;SDS011;26433;48.034;-1.764;2022-12-11T07:06:24;14.35;;;5.32;;
35304;SDS011;26433;48.034;-1.764;2022-12-11T07:11:29;14.18;;;5.18;;
35304;SDS011;26433;48.034;-1.764;2022-12-11T07:21:38;13.82;;;5.07;;
35304;SDS011;26433;48.034;-1.764;2022-12-11T07:26:41;15.30;;;6.32;;
35304;SDS011;26433;48.034;-1.764;2022-12-11T07:31:45;11.10;;;5.15;;
35304;SDS011;26433;48.034;-1.764;2022-12-11T07:36:50;14.25;;;5.87;;
35304;SDS011;26433;48.034;-1.764;2022-12-11T07:41:54;17.20;;;5.93;;
35304;SDS011;26433;48.034;-1.764;2022-12-11T07:46:57;12.65;;;5.68;;
35304;SDS011;26433;48.034;-1.764;2022-12-11T07:52:03;16.40;;;5.53;;
35304;SDS011;26433;48.034;-1.764;2022-12-11T07:57:06;14.43;;;5.50;;
35304;SDS011;26433;48.034;-1.764;2022-12-11T08:02:15;17.17;;;6.15;;
35304;SDS011;26433;48.034;-1.764;2022-12-11T08:07:20;12.55;;;4.75;;
35304;SDS011;26433;48.034;-1.764;2022-12-11T08:12:23;17.10;;;6.35;;
35304;SDS011;26433;48.034;-1.764;2022-12-11T08:17:27;18.15;;;5.93;;
35304;SDS011;26433;48.034;-1.764;2022-12-11T08:22:40;17.58;;;6.45;;
35304;SDS011;26433;48.034;-1.764;2022-12-11T08:27:44;12.85;;;6.35;;
35304;SDS011;26433;48.034;-1.764;2022-12-11T08:32:48;17.20;;;5.50;;
35304;SDS011;26433;48.034;-1.764;2022-12-11T08:37:53;17.95;;;6.68;;
35304;SDS011;26433;48.034;-1.764;2022-12-11T08:42:56;19.40;;;6.50;;
35304;SDS011;26433;48.034;-1.764;2022-12-11T08:48:00;23.80;;;6.60;;
35304;SDS011;26433;48.034;-1.764;2022-12-11T08:53:05;21.00;;;6.62;;
35304;SDS011;26433;48.034;-1.764;2022-12-11T08:58:08;18.05;;;6.50;;
35304;SDS011;26433;48.034;-1.764;2022-12-11T09:03:12;22.10;;;7.03;;
35304;SDS011;26433;48.034;-1.764;2022-12-11T09:08:17;22.10;;;7.22;;
35304;SDS011;26433;48.034;-1.764;2022-12-11T09:13:21;21.17;;;6.90;;
35304;SDS011;26433;48.034;-1.764;2022-12-11T09:18:25;18.17;;;6.28;;
35304;SDS011;26433;48.034;-1.764;2022-12-11T09:28:34;15.20;;;5.78;;
35304;SDS011;26433;48.034;-1.764;2022-12-11T09:33:43;20.88;;;6.93;;
35304;SDS011;26433;48.034;-1.764;2022-12-11T09:38:48;17.83;;;6.00;;
35304;SDS011;26433;48.034;-1.764;2022-12-11T09:43:56;16.73;;;7.75;;
35304;SDS011;26433;48.034;-1.764;2022-12-11T09:49:09;18.17;;;7.80;;
35304;SDS011;26433;48.034;-1.764;2022-12-11T09:54:21;22.20;;;7.32;;
35304;SDS011;26433;48.034;-1.764;2022-12-11T09:59:26;13.13;;;6.37;;
35304;SDS011;26433;48.034;-1.764;2022-12-11T10:04:40;12.10;;;6.30;;
35304;SDS011;26433;48.034;-1.764;2022-12-11T10:09:54;20.75;;;7.25;;
35304;SDS011;26433;48.034;-1.764;2022-12-11T10:15:09;14.55;;;6.28;;
35304;SDS011;26433;48.034;-1.764;2022-12-11T10:20:21;13.50;;;6.22;;
35304;SDS011;26433;48.034;-1.764;2022-12-11T10:25:31;14.70;;;5.57;;
35304;SDS011;26433;48.034;-1.764;2022-12-11T10:30:40;16.45;;;5.72;;
35304;SDS011;26433;48.034;-1.764;2022-12-11T10:35:50;12.37;;;5.70;;
35304;SDS011;26433;48.034;-1.764;2022-12-11T10:40:56;11.23;;;4.30;;
35304;SDS011;26433;48.034;-1.764;2022-12-11T10:46:03;9.38;;;4.75;;
35304;SDS011;26433;48.034;-1.764;2022-12-11T10:51:08;9.80;;;4.20;;
35304;SDS011;26433;48.034;-1.764;2022-12-11T10:56:13;9.23;;;4.18;;
35304;SDS011;26433;48.034;-1.764;2022-12-11T11:01:18;11.10;;;3.95;;
35304;SDS011;26433;48.034;-1.764;2022-12-11T11:06:25;9.95;;;4.80;;
35304;SDS011;26433;48.034;-1.764;2022-12-11T11:11:32;9.27;;;3.62;;
35304;SDS011;26433;48.034;-1.764;2022-12-11T11:16:38;7.72;;;3.58;;
35304;SDS011;26433;48.034;-1.764;2022-12-11T11:21:45;11.63;;;4.05;;
35304;SDS011;26433;48.034;-1.764;2022-12-11T11:26:53;9.30;;;3.50;;
35304;SDS011;26433;48.034;-1.764;2022-12-11T11:32:14;12.73;;;3.35;;
35304;SDS011;26433;48.034;-1.764;2022-12-11T11:37:23;8.07;;;3.10;;
35304;SDS011;26433;48.034;-1.764;2022-12-11T11:42:36;8.73;;;3.83;;
35304;SDS011;26433;48.034;-1.764;2022-12-11T11:47:47;8.80;;;3.72;;
35304;SDS011;26433;48.034;-1.764;2022-12-11T11:53:01;8.07;;;3.90;;
35304;SDS011;26433;48.034;-1.764;2022-12-11T11:58:11;9.88;;;3.95;;
35304;SDS011;26433;48.034;-1.764;2022-12-11T12:03:18;9.00;;;4.00;;
35304;SDS011;26433;48.034;-1.764;2022-12-11T12:08:31;8.60;;;3.87;;
35304;SDS011;26433;48.034;-1.764;2022-12-11T12:13:46;13.62;;;4.60;;
35304;SDS011;26433;48.034;-1.764;2022-12-11T12:19:00;9.75;;;4.18;;
35304;SDS011;26433;48.034;-1.764;2022-12-11T12:24:12;9.80;;;4.10;;
35304;SDS011;26433;48.034;-1.764;2022-12-11T12:29:27;10.20;;;4.03;;
35304;SDS011;26433;48.034;-1.764;2022-12-11T12:34:50;7.30;;;3.67;;
35304;SDS011;26433;48.034;-1.764;2022-12-11T12:40:07;10.68;;;3.85;;
35304;SDS011;26433;48.034;-1.764;2022-12-11T12:45:22;9.32;;;3.37;;
35304;SDS011;26433;48.034;-1.764;2022-12-11T12:50:32;7.72;;;3.10;;
35304;SDS011;26433;48.034;-1.764;2022-12-11T12:55:40;6.15;;;2.50;;
35304;SDS011;26433;48.034;-1.764;2022-12-11T13:00:45;4.22;;;2.20;;
35304;SDS011;26433;48.034;-1.764;2022-12-11T13:05:54;4.40;;;2.35;;
35304;SDS011;26433;48.034;-1.764;2022-12-11T13:11:00;7.78;;;2.62;;
35304;SDS011;26433;48.034;-1.764;2022-12-11T13:16:24;6.30;;;3.33;;
35304;SDS011;26433;48.034;-1.764;2022-12-11T13:21:36;5.43;;;2.67;;
35304;SDS011;26433;48.034;-1.764;2022-12-11T13:26:40;5.15;;;2.92;;
35304;SDS011;26433;48.034;-1.764;2022-12-11T13:31:45;9.20;;;3.08;;
35304;SDS011;26433;48.034;-1.764;2022-12-11T13:37:00;7.03;;;2.70;;
35304;SDS011;26433;48.034;-1.764;2022-12-11T13:42:06;6.62;;;2.53;;
35304;SDS011;26433;48.034;-1.764;2022-12-11T13:47:22;6.62;;;2.70;;
35304;SDS011;26433;48.034;-1.764;2022-12-11T13:52:26;7.45;;;2.78;;
35304;SDS011;26433;48.034;-1.764;2022-12-11T13:57:29;9.85;;;3.25;;
35304;SDS011;26433;48.034;-1.764;2022-12-11T14:02:35;6.57;;;2.95;;
35304;SDS011;26433;48.034;-1.764;2022-12-11T14:07:45;12.07;;;3.00;;
35304;SDS011;26433;48.034;-1.764;2022-12-11T14:12:52;7.40;;;3.17;;
35304;SDS011;26433;48.034;-1.764;2022-12-11T14:18:00;11.40;;;3.30;;
35304;SDS011;26433;48.034;-1.764;2022-12-11T14:23:05;9.48;;;3.65;;
35304;SDS011;26433;48.034;-1.764;2022-12-11T14:28:13;9.30;;;3.25;;
35304;SDS011;26433;48.034;-1.764;2022-12-11T14:33:20;8.90;;;2.95;;
35304;SDS011;26433;48.034;-1.764;2022-12-11T14:38:27;6.35;;;2.40;;
35304;SDS011;26433;48.034;-1.764;2022-12-11T14:43:35;7.50;;;3.12;;
35304;SDS011;26433;48.034;-1.764;2022-12-11T14:48:47;11.07;;;3.45;;
35304;SDS011;26433;48.034;-1.764;2022-12-11T14:54:01;6.55;;;2.62;;
35304;SDS011;26433;48.034;-1.764;2022-12-11T14:59:06;4.30;;;2.40;;
35304;SDS011;26433;48.034;-1.764;2022-12-11T15:04:31;7.45;;;2.80;;
35304;SDS011;26433;48.034;-1.764;2022-12-11T15:09:36;6.15;;;2.67;;
35304;SDS011;26433;48.034;-1.764;2022-12-11T15:14:41;9.23;;;3.30;;
35304;SDS011;26433;48.034;-1.764;2022-12-11T15:19:52;7.82;;;3.10;;
35304;SDS011;26433;48.034;-1.764;2022-12-11T15:24:58;8.68;;;3.05;;
35304;SDS011;26433;48.034;-1.764;2022-12-11T15:30:13;10.75;;;3.33;;
35304;SDS011;26433;48.034;-1.764;2022-12-11T15:35:30;7.22;;;3.08;;
35304;SDS011;26433;48.034;-1.764;2022-12-11T15:40:34;7.00;;;3.20;;
35304;SDS011;26433;48.034;-1.764;2022-12-11T15:45:37;6.23;;;2.60;;
35304;SDS011;26433;48.034;-1.764;2022-12-11T15:50:42;7.45;;;2.83;;
35304;SDS011;26433;48.034;-1.764;2022-12-11T15:55:46;11.93;;;4.00;;
35304;SDS011;26433;48.034;-1.764;2022-12-11T16:00:50;11.55;;;4.55;;
35304;SDS011;26433;48.034;-1.764;2022-12-11T16:05:55;13.10;;;5.00;;
35304;SDS011;26433;48.034;-1.764;2022-12-11T16:10:59;8.63;;;3.40;;
35304;SDS011;26433;48.034;-1.764;2022-12-11T16:16:02;7.70;;;3.40;;
35304;SDS011;26433;48.034;-1.764;2022-12-11T16:21:08;7.03;;;3.45;;
35304;SDS011;26433;48.034;-1.764;2022-12-11T16:26:11;10.05;;;4.22;;
35304;SDS011;26433;48.034;-1.764;2022-12-11T16:31:16;7.82;;;3.12;;
35304;SDS011;26433;48.034;-1.764;2022-12-11T16:36:21;8.52;;;3.97;;
35304;SDS011;26433;48.034;-1.764;2022-12-11T16:41:25;8.55;;;3.67;;
35304;SDS011;26433;48.034;-1.764;2022-12-11T16:46:29;11.45;;;4.65;;
35304;SDS011;26433;48.034;-1.764;2022-12-11T16:51:34;11.70;;;4.93;;
35304;SDS011;26433;48.034;-1.764;2022-12-11T16:56:38;11.45;;;4.45;;
35304;SDS011;26433;48.034;-1.764;2022-12-11T17:01:42;14.05;;;5.40;;
35304;SDS011;26433;48.034;-1.764;2022-12-11T17:06:47;9.93;;;4.85;;
35304;SDS011;26433;48.034;-1.764;2022-12-11T17:11:52;11.32;;;5.00;;
35304;SDS011;26433;48.034;-1.764;2022-12-11T17:16:56;12.85;;;6.40;;
35304;SDS011;26433;48.034;-1.764;2022-12-11T17:22:01;12.67;;;5.77;;
35304;SDS011;26433;48.034;-1.764;2022-12-11T17:27:05;19.60;;;6.22;;
35304;SDS011;26433;48.034;-1.764;2022-12-11T17:32:09;19.20;;;5.85;;
35304;SDS011;26433;48.034;-1.764;2022-12-11T17:37:14;19.00;;;5.53;;
35304;SDS011;26433;48.034;-1.764;2022-12-11T17:42:17;19.17;;;6.10;;
35304;SDS011;26433;48.034;-1.764;2022-12-11T17:47:21;12.98;;;5.30;;
35304;SDS011;26433;48.034;-1.764;2022-12-11T17:52:26;16.00;;;6.32;;
35304;SDS011;26433;48.034;-1.764;2022-12-11T17:57:35;15.55;;;5.80;;
35304;SDS011;26433;48.034;-1.764;2022-12-11T18:02:39;10.07;;;5.03;;
35304;SDS011;26433;48.034;-1.764;2022-12-11T18:07:44;16.58;;;5.35;;
35304;SDS011;26433;48.034;-1.764;2022-12-11T18:12:48;11.88;;;5.30;;
35304;SDS011;26433;48.034;-1.764;2022-12-11T18:17:51;28.12;;;6.87;;
35304;SDS011;26433;48.034;-1.764;2022-12-11T18:22:56;15.68;;;6.60;;
35304;SDS011;26433;48.034;-1.764;2022-12-11T18:28:01;19.85;;;6.53;;
35304;SDS011;26433;48.034;-1.764;2022-12-11T18:33:04;23.90;;;8.48;;
35304;SDS011;26433;48.034;-1.764;2022-12-11T18:38:09;21.15;;;7.78;;
35304;SDS011;26433;48.034;-1.764;2022-12-11T18:43:13;22.20;;;7.22;;
35304;SDS011;26433;48.034;-1.764;2022-12-11T18:48:17;17.23;;;7.35;;
35304;SDS011;26433;48.034;-1.764;2022-12-11T18:53:22;18.27;;;8.02;;
35304;SDS011;26433;48.034;-1.764;2022-12-11T18:58:25;25.12;;;10.07;;
35304;SDS011;26433;48.034;-1.764;2022-12-11T19:03:29;21.98;;;7.00;;
35304;SDS011;26433;48.034;-1.764;2022-12-11T19:08:34;17.02;;;7.65;;
35304;SDS011;26433;48.034;-1.764;2022-12-11T19:13:38;23.42;;;10.05;;
35304;SDS011;26433;48.034;-1.764;2022-12-11T19:18:42;24.45;;;10.45;;
35304;SDS011;26433;48.034;-1.764;2022-12-11T19:28:51;29.45;;;10.63;;
35304;SDS011;26433;48.034;-1.764;2022-12-11T19:33:56;34.30;;;13.40;;
35304;SDS011;26433;48.034;-1.764;2022-12-11T19:39:01;23.20;;;11.02;;
35304;SDS011;26433;48.034;-1.764;2022-12-11T19:44:13;28.87;;;12.23;;
35304;SDS011;26433;48.034;-1.764;2022-12-11T19:49:17;38.55;;;14.07;;
35304;SDS011;26433;48.034;-1.764;2022-12-11T19:54:22;37.65;;;12.57;;
35304;SDS011;26433;48.034;-1.764;2022-12-11T19:59:27;30.00;;;12.43;;
35304;SDS011;26433;48.034;-1.764;2022-12-11T20:04:31;32.78;;;12.73;;
35304;SDS011;26433;48.034;-1.764;2022-12-11T20:09:36;42.55;;;13.68;;
35304;SDS011;26433;48.034;-1.764;2022-12-11T20:14:40;34.05;;;13.65;;
35304;SDS011;26433;48.034;-1.764;2022-12-11T20:19:43;23.85;;;8.57;;
35304;SDS011;26433;48.034;-1.764;2022-12-11T20:24:48;19.58;;;7.93;;
35304;SDS011;26433;48.034;-1.764;2022-12-11T20:29:52;18.30;;;7.80;;
35304;SDS011;26433;48.034;-1.764;2022-12-11T20:34:56;16.73;;;7.57;;
35304;SDS011;26433;48.034;-1.764;2022-12-11T20:40:01;19.05;;;7.07;;
35304;SDS011;26433;48.034;-1.764;2022-12-11T20:45:06;15.50;;;6.15;;
35304;SDS011;26433;48.034;-1.764;2022-12-11T20:50:10;13.77;;;6.05;;
35304;SDS011;26433;48.034;-1.764;2022-12-11T20:55:15;13.93;;;5.28;;
35304;SDS011;26433;48.034;-1.764;2022-12-11T21:00:19;14.65;;;5.15;;
35304;SDS011;26433;48.034;-1.764;2022-12-11T21:05:23;14.60;;;5.00;;
35304;SDS011;26433;48.034;-1.764;2022-12-11T21:10:28;11.05;;;3.67;;
35304;SDS011;26433;48.034;-1.764;2022-12-11T21:15:33;12.10;;;4.53;;
35304;SDS011;26433;48.034;-1.764;2022-12-11T21:20:37;8.65;;;3.22;;
35304;SDS011;26433;48.034;-1.764;2022-12-11T21:25:42;7.82;;;3.10;;
35304;SDS011;26433;48.034;-1.764;2022-12-11T21:30:46;8.52;;;3.17;;
35304;SDS011;26433;48.034;-1.764;2022-12-11T21:35:52;7.50;;;3.03;;
35304;SDS011;26433;48.034;-1.764;2022-12-11T21:41:04;7.75;;;3.15;;
35304;SDS011;26433;48.034;-1.764;2022-12-11T21:46:09;7.85;;;2.72;;
35304;SDS011;26433;48.034;-1.764;2022-12-11T21:51:15;6.50;;;2.95;;
35304;SDS011;26433;48.034;-1.764;2022-12-11T21:56:22;8.52;;;3.58;;
35304;SDS011;26433;48.034;-1.764;2022-12-11T22:01:29;6.50;;;3.92;;
35304;SDS011;26433;48.034;-1.764;2022-12-11T22:06:35;9.68;;;3.47;;
35304;SDS011;26433;48.034;-1.764;2022-12-11T22:11:42;8.20;;;3.25;;
35304;SDS011;26433;48.034;-1.764;2022-12-11T22:16:47;5.30;;;2.87;;
35304;SDS011;26433;48.034;-1.764;2022-12-11T22:21:51;7.32;;;3.42;;
35304;SDS011;26433;48.034;-1.764;2022-12-11T22:26:56;7.57;;;3.78;;
35304;SDS011;26433;48.034;-1.764;2022-12-11T22:32:00;6.78;;;3.42;;
35304;SDS011;26433;48.034;-1.764;2022-12-11T22:37:04;5.82;;;2.92;;
35304;SDS011;26433;48.034;-1.764;2022-12-11T22:42:09;10.38;;;3.78;;
35304;SDS011;26433;48.034;-1.764;2022-12-11T22:47:12;9.48;;;3.45;;
35304;SDS011;26433;48.034;-1.764;2022-12-11T22:52:16;9.02;;;3.35;;
35304;SDS011;26433;48.034;-1.764;2022-12-11T22:57:21;6.35;;;2.83;;
35304;SDS011;26433;48.034;-1.764;2022-12-11T23:02:25;8.95;;;3.42;;
35304;SDS011;26433;48.034;-1.764;2022-12-11T23:07:29;6.37;;;2.83;;
35304;SDS011;26433;48.034;-1.764;2022-12-11T23:12:35;9.23;;;3.60;;
35304;SDS011;26433;48.034;-1.764;2022-12-11T23:17:38;8.32;;;3.22;;
35304;SDS011;26433;48.034;-1.764;2022-12-11T23:22:42;11.05;;;2.85;;
35304;SDS011;26433;48.034;-1.764;2022-12-11T23:27:47;7.37;;;3.37;;
